Helliar — 2EPP5 — position and weather

sailwx.info

Track history (hours):
 
Tides and Currents Weather Stations Pressure Air Temp Water Temp Dewpoint Dewpoint Depression Visibility Wind Speed Wind Dir Waves Ship Positions

Helliar

Last reported at 2016-Jun-30 09:15 UTC. Time now 2016-Jun-30 10:30 UTC.
Position N 57°09' W 002°05'.

Length 122 m; draft 5.3 m.

Type: Cargo ship. MMSI: 235087119.

Date/timePositionNaut miles runAvg speedWind from/ knotsBaromVisibWave heightAir tempDewpointWater temp
2016-Jun-30 09:15N 57°09' W 002°05'0 0.0
2016-Jun-30 08:06N 57°09' W 002°05'0 0.0
2016-Jun-30 07:24N 57°09' W 002°05'1 0.9
2016-Jun-30 06:33N 57°09' W 002°04'2512.6
2016-Jun-30 04:33N 57°30' W 001°39'1 0.0
2016-Jun-28 18:33N 57°31' W 001°39'2612.0
2016-Jun-28 16:24N 57°09' W 002°05'0 0.0
2016-Jun-28 14:27N 57°09' W 002°05'0 0.0
2016-Jun-28 13:21N 57°09' W 002°05'0 0.0
2016-Jun-28 12:33N 57°09' W 002°05'0 0.0
2016-Jun-28 11:21N 57°09' W 002°05'0 0.0
2016-Jun-28 10:33N 57°09' W 002°05'0 0.1
2016-Jun-28 06:33N 57°08' W 002°04'  
2016-Jun-25 15:13N 57°09' W 002°04'1 0.9
2016-Jun-25 14:31N 57°09' W 002°05'0 0.0
2016-Jun-25 13:31N 57°09' W 002°05'0 0.0
2016-Jun-25 12:31N 57°09' W 002°05'0 0.0
2016-Jun-25 11:31N 57°09' W 002°05'0 0.0
2016-Jun-25 10:31N 57°09' W 002°05'0 0.0
2016-Jun-25 09:31N 57°09' W 002°05'0 0.0
2016-Jun-25 08:31N 57°09' W 002°05'0 0.0
2016-Jun-25 07:31N 57°09' W 002°05'0 0.4
2016-Jun-25 06:33N 57°08' W 002°05'0 0.0
2016-Jun-23 16:04N 57°09' W 002°04'1 1.1
2016-Jun-23 15:30N 57°09' W 002°05'0 0.0
2016-Jun-23 14:33N 57°09' W 002°05'0 0.0
2016-Jun-23 13:33N 57°09' W 002°05'0 0.0
2016-Jun-23 12:21N 57°09' W 002°05'0 0.0
2016-Jun-23 11:33N 57°09' W 002°05'0 0.0
2016-Jun-23 10:33N 57°09' W 002°05'0 0.0
2016-Jun-23 09:33N 57°09' W 002°05'0 0.0
2016-Jun-23 08:33N 57°09' W 002°05'1 0.0
2016-Jun-21 16:22N 57°08' W 002°04'0 0.1
2016-Jun-21 13:32N 57°09' W 002°05'0 0.0
2016-Jun-21 12:32N 57°09' W 002°05'0 0.0
2016-Jun-21 11:17N 57°09' W 002°05'0 0.0
2016-Jun-21 10:32N 57°09' W 002°05'0 0.0
2016-Jun-21 09:32N 57°09' W 002°05'0 0.0
2016-Jun-21 08:26N 57°09' W 002°05'0 0.0
2016-Jun-21 07:32N 57°09' W 002°05'0 0.0
2016-Jun-21 06:32N 57°09' W 002°05'1 0.5
2016-Jun-21 04:33N 57°09' W 002°03'8812.5
2016-Jun-20 21:29N 58°36' W 002°24'1414.7
2016-Jun-20 20:32N 58°50' W 002°33'1413.8
2016-Jun-20 19:33N 59°00' W 002°49'5 4.7
2016-Jun-20 18:32N 58°60' W 002°58'0 0.0
2016-Jun-20 17:32N 58°60' W 002°58'0 0.0
2016-Jun-20 16:32N 58°60' W 002°58'  
Track history (hours):
 
Tides and Currents Weather Stations Pressure Air Temp Water Temp Dewpoint Dewpoint Depression Visibility Wind Speed Wind Dir Waves Ship Positions

Helliar

Last reported at 2016-Jun-30 09:15 UTC. Time now 2016-Jun-30 10:30 UTC.
Position N 57°09' W 002°05'.

Length 122 m; draft 5.3 m.

Type: Cargo ship. MMSI: 235087119.

Date/timePositionNaut miles runAvg speedWind from/ knotsBaromVisibWave heightAir tempDewpointWater temp
2016-Jun-30 09:15N 57°09' W 002°05'0 0.0
2016-Jun-30 08:06N 57°09' W 002°05'0 0.0
2016-Jun-30 07:24N 57°09' W 002°05'1 0.9
2016-Jun-30 06:33N 57°09' W 002°04'2512.6
2016-Jun-30 04:33N 57°30' W 001°39'1 0.0
2016-Jun-28 18:33N 57°31' W 001°39'2612.0
2016-Jun-28 16:24N 57°09' W 002°05'0 0.0
2016-Jun-28 14:27N 57°09' W 002°05'0 0.0
2016-Jun-28 13:21N 57°09' W 002°05'0 0.0
2016-Jun-28 12:33N 57°09' W 002°05'0 0.0
2016-Jun-28 11:21N 57°09' W 002°05'0 0.0
2016-Jun-28 10:33N 57°09' W 002°05'0 0.1
2016-Jun-28 06:33N 57°08' W 002°04'  
2016-Jun-25 15:13N 57°09' W 002°04'1 0.9
2016-Jun-25 14:31N 57°09' W 002°05'0 0.0
2016-Jun-25 13:31N 57°09' W 002°05'0 0.0
2016-Jun-25 12:31N 57°09' W 002°05'0 0.0
2016-Jun-25 11:31N 57°09' W 002°05'0 0.0
2016-Jun-25 10:31N 57°09' W 002°05'0 0.0
2016-Jun-25 09:31N 57°09' W 002°05'0 0.0
2016-Jun-25 08:31N 57°09' W 002°05'0 0.0
2016-Jun-25 07:31N 57°09' W 002°05'0 0.4
2016-Jun-25 06:33N 57°08' W 002°05'0 0.0
2016-Jun-23 16:04N 57°09' W 002°04'1 1.1
2016-Jun-23 15:30N 57°09' W 002°05'0 0.0
2016-Jun-23 14:33N 57°09' W 002°05'0 0.0
2016-Jun-23 13:33N 57°09' W 002°05'0 0.0
2016-Jun-23 12:21N 57°09' W 002°05'0 0.0
2016-Jun-23 11:33N 57°09' W 002°05'0 0.0
2016-Jun-23 10:33N 57°09' W 002°05'0 0.0
2016-Jun-23 09:33N 57°09' W 002°05'0 0.0
2016-Jun-23 08:33N 57°09' W 002°05'1 0.0
2016-Jun-21 16:22N 57°08' W 002°04'0 0.1
2016-Jun-21 13:32N 57°09' W 002°05'0 0.0
2016-Jun-21 12:32N 57°09' W 002°05'0 0.0
2016-Jun-21 11:17N 57°09' W 002°05'0 0.0
2016-Jun-21 10:32N 57°09' W 002°05'0 0.0
2016-Jun-21 09:32N 57°09' W 002°05'0 0.0
2016-Jun-21 08:26N 57°09' W 002°05'0 0.0
2016-Jun-21 07:32N 57°09' W 002°05'0 0.0
2016-Jun-21 06:32N 57°09' W 002°05'1 0.5
2016-Jun-21 04:33N 57°09' W 002°03'8812.5
2016-Jun-20 21:29N 58°36' W 002°24'1414.7
2016-Jun-20 20:32N 58°50' W 002°33'1413.8
2016-Jun-20 19:33N 59°00' W 002°49'5 4.7
2016-Jun-20 18:32N 58°60' W 002°58'0 0.0
2016-Jun-20 17:32N 58°60' W 002°58'0 0.0
2016-Jun-20 16:32N 58°60' W 002°58'  

Dump ship's entire track history